createdAt,value
2022-10-02T00:00:05.220Z,100.00
2022-10-02T00:02:45.343Z,100.00
2022-10-02T00:05:16.773Z,100.00
2022-10-02T00:07:49.097Z,100.00
2022-10-02T00:10:22.920Z,100.00
2022-10-02T00:12:55.079Z,100.00
2022-10-02T00:15:28.893Z,100.00
2022-10-02T00:17:58.116Z,100.00
2022-10-02T00:20:34.074Z,100.00
2022-10-02T00:23:27.110Z,100.00
2022-10-02T00:26:02.129Z,100.00
2022-10-02T00:28:36.305Z,100.00
2022-10-02T00:31:15.558Z,100.00
2022-10-02T00:34:05.067Z,100.00
2022-10-02T00:45:21.527Z,100.00
2022-10-02T00:48:12.570Z,100.00
2022-10-02T00:57:11.468Z,100.00
2022-10-02T00:59:51.628Z,100.00
2022-10-02T01:02:31.407Z,100.00
2022-10-02T06:58:15.476Z,100.00
2022-10-02T07:01:14.749Z,100.00
2022-10-02T07:03:56.696Z,100.00
2022-10-02T07:06:39.563Z,100.00
2022-10-02T07:09:35.382Z,100.00
2022-10-02T07:12:43.978Z,100.00
2022-10-02T07:15:28.608Z,100.00
2022-10-02T07:18:19.883Z,100.00
2022-10-02T07:21:57.128Z,100.00
2022-10-02T07:24:58.269Z,100.00
2022-10-02T07:33:08.358Z,100.00
2022-10-02T07:35:53.653Z,100.00
2022-10-02T07:38:43.210Z,100.00
2022-10-02T07:41:27.493Z,100.00
2022-10-02T07:44:35.613Z,100.00
2022-10-02T07:48:06.416Z,100.00
2022-10-02T07:51:31.903Z,100.00
2022-10-02T07:54:16.539Z,100.00
2022-10-02T07:56:45.831Z,100.00
2022-10-02T07:59:16.190Z,100.00
2022-10-02T08:01:45.328Z,100.00
2022-10-02T08:04:24.624Z,100.00
2022-10-02T08:06:58.189Z,100.00
2022-10-02T08:09:47.710Z,100.00
2022-10-02T08:12:27.678Z,100.00
2022-10-02T08:14:56.301Z,100.00
2022-10-02T08:18:32.993Z,100.00
2022-10-02T08:21:01.844Z,100.00
2022-10-02T08:23:44.068Z,100.00
2022-10-02T08:26:25.239Z,100.00
2022-10-02T08:29:05.587Z,100.00
2022-10-02T08:31:35.733Z,100.00
2022-10-02T08:34:16.618Z,100.00
2022-10-02T08:37:13.306Z,100.00
2022-10-02T08:39:51.963Z,100.00
2022-10-02T08:42:45.910Z,100.00
2022-10-02T08:45:49.192Z,100.00
2022-10-02T08:49:06.759Z,100.00
2022-10-02T08:52:11.474Z,100.00
2022-10-02T08:54:38.852Z,100.00
2022-10-02T08:57:15.892Z,100.00
2022-10-02T09:00:18.148Z,100.00
2022-10-02T09:02:47.889Z,100.00
2022-10-02T09:05:35.140Z,100.00
2022-10-02T09:08:36.085Z,100.00
2022-10-02T09:11:16.350Z,100.00
2022-10-02T09:14:10.409Z,96.57
2022-10-02T09:17:15.675Z,89.84
2022-10-02T09:19:54.516Z,84.49
2022-10-02T09:22:36.683Z,83.57
2022-10-02T09:25:22.605Z,84.29
2022-10-02T09:28:11.026Z,85.53
2022-10-02T09:36:30.181Z,100.00
2022-10-02T09:52:47.602Z,81.59
2022-10-02T09:55:50.083Z,100.00
2022-10-02T09:58:48.935Z,73.37
2022-10-02T10:01:32.973Z,74.77
2022-10-02T10:04:21.990Z,74.27
2022-10-02T10:07:11.748Z,81.20
2022-10-02T10:10:01.713Z,76.29
2022-10-02T10:12:37.313Z,77.45
2022-10-02T10:15:23.053Z,78.58
2022-10-02T10:18:09.696Z,78.98
2022-10-02T10:20:46.309Z,78.73
2022-10-02T10:23:31.846Z,71.39
2022-10-02T10:26:17.985Z,68.45
2022-10-02T10:29:04.862Z,68.96
2022-10-02T10:31:46.725Z,69.48
2022-10-02T10:35:02.879Z,67.57
2022-10-02T10:38:10.101Z,62.15
2022-10-02T10:41:05.221Z,61.17
2022-10-02T10:44:06.306Z,67.11
2022-10-02T10:46:46.752Z,67.48
2022-10-02T10:49:38.669Z,68.09
2022-10-02T10:52:07.649Z,68.42
2022-10-02T10:54:54.578Z,68.89
2022-10-02T10:57:44.820Z,68.99
2022-10-02T11:00:25.917Z,69.22
2022-10-02T11:03:04.570Z,69.49
2022-10-02T11:05:49.746Z,69.61
2022-10-02T11:09:04.780Z,69.49
2022-10-02T11:12:22.924Z,69.54
2022-10-02T11:14:55.281Z,69.53
2022-10-02T11:17:51.157Z,70.19
2022-10-02T11:20:36.497Z,70.69
2022-10-02T11:23:31.079Z,68.66
2022-10-02T11:26:16.127Z,68.84
2022-10-02T11:29:16.961Z,71.70
2022-10-02T11:32:14.428Z,72.27
2022-10-02T11:34:43.945Z,73.80
2022-10-02T11:37:52.727Z,74.48
2022-10-02T11:40:31.347Z,76.70
2022-10-02T11:43:23.119Z,80.54
2022-10-02T11:46:09.150Z,79.08
2022-10-02T11:48:47.799Z,83.01
2022-10-02T11:51:33.004Z,82.51
2022-10-02T11:54:11.785Z,85.56
2022-10-02T11:57:21.208Z,83.42
2022-10-02T12:00:16.106Z,82.40
2022-10-02T12:02:58.345Z,82.71
